Terminal Aerodrome Forecast
Issued by NWS Upton, NY

Home | Current Version | Previous Version | Text Only | Print | Product List | Glossary On
Versions: 1 2 3 4 5 6 7 8 9 10 11 12 13 14 15 16 17 18 19 20 21 22 23 24 25 26 27 28 29 30 31 32 33 34 35 36 37 38 39
680
FTUS41 KOKX 190540
TAFISP
TAF
KISP 190540Z 1906/2006 25007KT 6SM BR SCT006 SCT015 BKN250
     FM190700 28005KT 5SM BR FEW006 OVC015
      TEMPO 1907/1910 2SM BR BKN006
     FM191100 31006KT P6SM SCT020 BKN050 BKN250
     FM191700 24010KT P6SM SCT025 SCT050 BKN250
     FM191900 21011KT P6SM SCT035
     FM192000 18011KT P6SM SCT045
     FM200400 20008KT P6SM FEW250=

USA.gov is the U.S. government's official web portal to all federal, state and local government web resources and services.